createdAt,value
2024-02-13T00:02:33.201Z,9.47
2024-02-13T00:07:40.801Z,9.40
2024-02-13T00:12:46.570Z,9.00
2024-02-13T00:17:52.844Z,10.07
2024-02-13T00:23:00.759Z,10.07
2024-02-13T00:28:07.409Z,10.83
2024-02-13T00:33:13.316Z,9.13
2024-02-13T00:38:19.045Z,9.43
2024-02-13T00:43:25.157Z,9.63
2024-02-13T00:48:32.615Z,10.00
2024-02-13T00:53:39.402Z,10.07
2024-02-13T00:58:47.023Z,9.93
2024-02-13T01:03:52.903Z,9.20
2024-02-13T01:08:58.887Z,10.40
2024-02-13T01:14:05.417Z,9.57
2024-02-13T01:19:11.216Z,9.13
2024-02-13T01:24:17.565Z,10.10
2024-02-13T01:29:23.981Z,8.70
2024-02-13T01:34:31.763Z,8.07
2024-02-13T01:39:37.430Z,9.07
2024-02-13T01:44:43.495Z,8.57
2024-02-13T01:49:49.952Z,8.23
2024-02-13T01:54:56.078Z,7.90
2024-02-13T02:00:02.035Z,8.20
2024-02-13T02:05:15.345Z,8.93
2024-02-13T02:10:21.287Z,8.23
2024-02-13T02:15:27.862Z,8.03
2024-02-13T02:20:33.790Z,8.83
2024-02-13T02:25:39.609Z,8.00
2024-02-13T02:30:46.885Z,9.07
2024-02-13T02:35:53.904Z,8.27
2024-02-13T02:40:59.689Z,7.50
2024-02-13T02:46:06.593Z,8.60
2024-02-13T02:51:12.467Z,8.10
2024-02-13T02:56:18.653Z,7.40
2024-02-13T03:01:26.019Z,8.53
2024-02-13T03:06:32.603Z,7.63
2024-02-13T03:11:38.462Z,7.27
2024-02-13T03:16:45.729Z,7.40
2024-02-13T03:21:51.489Z,7.23
2024-02-13T03:26:57.403Z,6.80
2024-02-13T03:32:03.118Z,8.17
2024-02-13T03:37:10.033Z,7.50
2024-02-13T03:42:17.642Z,9.00
2024-02-13T03:47:23.951Z,7.50
2024-02-13T03:52:30.283Z,6.50
2024-02-13T03:57:37.287Z,6.70
2024-02-13T04:02:43.106Z,4.97
2024-02-13T04:07:49.562Z,4.63
2024-02-13T04:12:55.330Z,5.17
2024-02-13T04:18:01.145Z,5.33
2024-02-13T04:23:07.499Z,5.53
2024-02-13T04:28:13.140Z,6.33
2024-02-13T04:33:19.955Z,4.97
2024-02-13T04:38:25.793Z,5.40
2024-02-13T04:43:31.662Z,4.17
2024-02-13T04:48:39.054Z,4.80
2024-02-13T04:53:45.065Z,3.40
2024-02-13T04:58:52.967Z,3.97
2024-02-13T05:04:18.512Z,3.73
2024-02-13T05:09:24.983Z,3.50
2024-02-13T05:14:32.108Z,2.77
2024-02-13T05:19:37.923Z,3.00
2024-02-13T05:24:43.562Z,3.47
2024-02-13T05:29:49.591Z,3.40
2024-02-13T05:34:57.001Z,3.73
2024-02-13T05:40:02.718Z,3.17
2024-02-13T05:45:09.210Z,2.80
2024-02-13T05:50:16.604Z,2.37
2024-02-13T05:55:22.428Z,2.93
2024-02-13T06:00:28.207Z,2.40
2024-02-13T06:05:34.226Z,2.80
2024-02-13T06:10:41.204Z,2.03
2024-02-13T06:15:47.379Z,2.57
2024-02-13T06:20:54.842Z,2.70
2024-02-13T06:26:01.050Z,2.73
2024-02-13T06:31:06.733Z,2.33
2024-02-13T06:36:12.493Z,2.83
2024-02-13T06:41:18.079Z,2.30
2024-02-13T06:46:24.024Z,2.80
2024-02-13T06:51:30.408Z,2.73
2024-02-13T06:56:37.663Z,2.93
2024-02-13T07:01:43.379Z,2.90
2024-02-13T07:06:59.406Z,3.13
2024-02-13T07:11:56.253Z,3.47
2024-02-13T07:17:02.152Z,3.03
2024-02-13T07:22:09.145Z,3.37
2024-02-13T07:27:16.435Z,3.57
2024-02-13T07:32:22.433Z,3.60
2024-02-13T07:37:28.321Z,4.00
2024-02-13T07:42:34.045Z,3.87
2024-02-13T07:47:40.924Z,4.07
2024-02-13T07:52:47.110Z,3.73
2024-02-13T07:57:54.520Z,4.37
2024-02-13T08:03:01.158Z,4.37
2024-02-13T08:08:10.196Z,4.77
2024-02-13T08:13:16.458Z,4.30
2024-02-13T08:18:22.964Z,4.87
2024-02-13T08:23:28.926Z,4.53
2024-02-13T08:28:34.683Z,4.70
2024-02-13T08:33:42.279Z,5.03
2024-02-13T08:38:48.192Z,5.20
2024-02-13T08:43:54.136Z,5.40
2024-02-13T08:49:00.120Z,4.80
2024-02-13T08:54:09.680Z,4.47
2024-02-13T08:59:15.525Z,5.30
2024-02-13T09:04:21.787Z,5.67
2024-02-13T09:09:28.406Z,5.37
2024-02-13T09:14:35.311Z,4.63
2024-02-13T09:19:42.712Z,5.40
2024-02-13T09:24:50.072Z,6.80
2024-02-13T09:29:56.547Z,5.00
2024-02-13T09:35:02.576Z,5.17
2024-02-13T09:40:14.319Z,5.00
2024-02-13T09:45:20.362Z,4.87
2024-02-13T09:50:30.653Z,4.77
2024-02-13T09:55:39.286Z,6.27
2024-02-13T10:00:45.338Z,4.87
2024-02-13T10:05:52.207Z,4.83
2024-02-13T10:11:06.689Z,4.67
2024-02-13T10:16:27.688Z,4.33
2024-02-13T10:21:35.260Z,4.03
2024-02-13T10:26:41.118Z,4.77
2024-02-13T10:31:46.903Z,3.60
2024-02-13T10:36:53.232Z,4.53
2024-02-13T10:42:00.598Z,4.50
2024-02-13T10:47:09.169Z,4.20
2024-02-13T10:52:15.475Z,3.97
2024-02-13T10:57:24.072Z,3.50
2024-02-13T11:02:32.092Z,3.40
2024-02-13T11:07:42.092Z,3.33
2024-02-13T11:12:46.826Z,3.87
2024-02-13T11:17:59.070Z,3.93
2024-02-13T11:23:04.895Z,3.40
2024-02-13T11:28:12.697Z,3.40
2024-02-13T11:33:21.898Z,3.50
2024-02-13T11:38:30.038Z,3.33
2024-02-13T11:43:35.736Z,2.70
2024-02-13T11:48:42.527Z,3.33
2024-02-13T11:53:48.995Z,2.80
2024-02-13T11:58:56.320Z,2.20
2024-02-13T12:04:02.915Z,2.50
2024-02-13T12:09:09.851Z,2.10
2024-02-13T12:14:16.025Z,2.00
2024-02-13T12:19:22.014Z,2.53
2024-02-13T12:24:27.829Z,2.17
2024-02-13T12:29:37.008Z,1.80
2024-02-13T12:34:43.711Z,1.37
2024-02-13T12:39:51.189Z,1.60
2024-02-13T12:44:58.623Z,1.40
2024-02-13T12:50:04.939Z,1.60
2024-02-13T12:55:12.612Z,1.20
2024-02-13T13:00:19.336Z,1.10
2024-02-13T13:05:26.594Z,2.03
2024-02-13T13:10:32.448Z,1.27
2024-02-13T13:15:39.735Z,1.33
2024-02-13T13:20:46.764Z,1.30
2024-02-13T13:25:56.697Z,1.80
2024-02-13T13:31:04.155Z,1.60
2024-02-13T13:36:10.399Z,1.27
2024-02-13T13:41:16.839Z,1.50
2024-02-13T13:46:22.555Z,1.30
2024-02-13T13:51:30.018Z,2.40
2024-02-13T13:56:35.676Z,1.50
2024-02-13T14:01:42.017Z,1.43
2024-02-13T14:06:47.798Z,1.40
2024-02-13T14:11:54.070Z,1.50
2024-02-13T14:17:01.584Z,1.40
2024-02-13T14:22:09.091Z,1.60
2024-02-13T14:27:15.066Z,1.50
2024-02-13T14:32:20.870Z,1.40
2024-02-13T14:37:27.028Z,1.47
2024-02-13T14:42:33.199Z,1.50
2024-02-13T14:47:39.665Z,1.00
2024-02-13T14:52:45.883Z,1.53
2024-02-13T14:58:00.841Z,1.10
2024-02-13T15:03:01.879Z,1.33
2024-02-13T15:08:07.968Z,1.00
2024-02-13T15:13:15.403Z,1.23
2024-02-13T15:18:22.938Z,1.40
2024-02-13T15:23:30.783Z,1.20
2024-02-13T15:28:36.970Z,1.40
2024-02-13T15:33:43.006Z,1.33
2024-02-13T15:39:07.218Z,1.40
2024-02-13T15:44:34.655Z,1.30
2024-02-13T15:49:42.424Z,1.10
2024-02-13T15:54:49.209Z,1.20
2024-02-13T15:59:55.052Z,1.20
2024-02-13T16:05:01.035Z,1.70
2024-02-13T16:10:09.987Z,1.30
2024-02-13T16:15:15.846Z,1.80
2024-02-13T16:20:23.722Z,1.67
2024-02-13T16:25:31.732Z,2.00
2024-02-13T16:30:37.653Z,2.20
2024-02-13T16:35:43.469Z,2.50
2024-02-13T16:40:49.506Z,2.37
2024-02-13T16:45:55.254Z,1.50
2024-02-13T16:51:01.100Z,1.83
2024-02-13T16:56:07.841Z,1.83
2024-02-13T17:01:13.670Z,1.93
2024-02-13T17:06:21.107Z,1.50
2024-02-13T17:11:26.994Z,1.87
2024-02-13T17:16:33.155Z,1.80
2024-02-13T17:21:38.931Z,2.07
2024-02-13T17:26:44.976Z,2.17
2024-02-13T17:31:51.901Z,2.33
2024-02-13T17:36:57.582Z,1.57
2024-02-13T17:42:04.984Z,1.70
2024-02-13T17:47:10.871Z,1.97
2024-02-13T17:52:16.547Z,2.33
2024-02-13T17:57:22.206Z,2.63
2024-02-13T18:02:28.099Z,2.30
2024-02-13T18:07:35.284Z,2.67
2024-02-13T18:12:44.418Z,2.10
2024-02-13T18:17:50.254Z,2.63
2024-02-13T18:22:58.447Z,2.40
2024-02-13T18:28:04.287Z,2.50
2024-02-13T18:33:10.829Z,1.80
2024-02-13T18:38:17.559Z,2.30
2024-02-13T18:43:23.492Z,2.40
2024-02-13T18:48:29.455Z,2.20
2024-02-13T18:53:35.715Z,2.00
2024-02-13T18:58:41.761Z,2.80
2024-02-13T19:03:48.753Z,2.10
2024-02-13T19:08:54.543Z,2.00
2024-02-13T19:14:00.413Z,1.57
2024-02-13T19:19:06.420Z,1.60
2024-02-13T19:24:12.820Z,1.97
2024-02-13T19:29:19.000Z,1.80
2024-02-13T19:34:28.324Z,1.93
2024-02-13T19:39:33.585Z,3.23
2024-02-13T19:44:40.407Z,2.00
2024-02-13T19:49:46.343Z,1.97
2024-02-13T19:54:52.097Z,2.30
2024-02-13T19:59:57.907Z,2.07
2024-02-13T20:05:03.692Z,2.40
2024-02-13T20:10:10.509Z,2.00
2024-02-13T20:15:16.437Z,2.53
2024-02-13T20:20:22.133Z,2.37
2024-02-13T20:25:27.967Z,2.20
2024-02-13T20:30:35.375Z,2.20
2024-02-13T20:35:44.384Z,2.73
2024-02-13T20:40:51.808Z,2.23
2024-02-13T20:45:59.661Z,2.17
2024-02-13T20:51:06.024Z,2.20
2024-02-13T20:56:11.759Z,2.10
2024-02-13T21:01:17.513Z,2.00
2024-02-13T21:06:25.508Z,2.73
2024-02-13T21:11:32.907Z,2.30
2024-02-13T21:16:38.624Z,2.33
2024-02-13T21:22:03.122Z,2.47
2024-02-13T21:27:08.819Z,2.63
2024-02-13T21:32:15.648Z,2.63
2024-02-13T21:37:21.572Z,2.80
2024-02-13T21:42:27.329Z,2.70
2024-02-13T21:47:33.052Z,2.40
2024-02-13T21:52:42.074Z,2.20
2024-02-13T21:57:47.944Z,2.20
2024-02-13T22:02:53.978Z,2.33
2024-02-13T22:07:59.687Z,2.20
2024-02-13T22:13:07.340Z,2.27
2024-02-13T22:18:14.982Z,2.50
2024-02-13T22:23:20.775Z,2.20
2024-02-13T22:28:26.622Z,2.13
2024-02-13T22:33:32.508Z,2.13
2024-02-13T22:38:38.278Z,2.17
2024-02-13T22:43:44.198Z,2.37
2024-02-13T22:48:50.578Z,1.93
2024-02-13T22:53:56.480Z,3.00
2024-02-13T22:59:03.102Z,2.47
2024-02-13T23:04:09.372Z,2.47
2024-02-13T23:09:18.586Z,2.53
2024-02-13T23:14:25.269Z,2.50
2024-02-13T23:19:31.850Z,3.00
2024-02-13T23:24:39.111Z,2.90
2024-02-13T23:29:44.805Z,2.83
2024-02-13T23:34:51.020Z,2.70
2024-02-13T23:39:57.282Z,2.60
2024-02-13T23:45:03.001Z,2.53
2024-02-13T23:50:09.602Z,2.70
2024-02-13T23:55:16.207Z,3.43
